sensor_id;sensor_type;location;lat;lon;timestamp;temperature;humidity
25140;DHT22;39015;48.106;-1.682;2023-04-15T08:10:59;14.30;76.80
25140;DHT22;39015;48.106;-1.682;2023-04-15T08:13:26;14.40;76.90
25140;DHT22;39015;48.106;-1.682;2023-04-15T08:18:35;14.40;76.80
25140;DHT22;39015;48.106;-1.682;2023-04-15T08:21:03;14.40;76.90
25140;DHT22;39015;48.106;-1.682;2023-04-15T08:23:30;14.40;76.80
25140;DHT22;39015;48.106;-1.682;2023-04-15T08:25:58;14.50;76.90
25140;DHT22;39015;48.106;-1.682;2023-04-15T08:28:25;14.50;76.90
25140;DHT22;39015;48.106;-1.682;2023-04-15T08:30:52;14.50;76.90
25140;DHT22;39015;48.106;-1.682;2023-04-15T08:33:21;14.50;76.90
25140;DHT22;39015;48.106;-1.682;2023-04-15T08:35:48;14.50;76.80
25140;DHT22;39015;48.106;-1.682;2023-04-15T08:38:15;14.50;76.80
25140;DHT22;39015;48.106;-1.682;2023-04-15T08:40:42;14.50;76.80
25140;DHT22;39015;48.106;-1.682;2023-04-15T08:43:11;14.50;76.70
25140;DHT22;39015;48.106;-1.682;2023-04-15T08:45:39;14.50;76.70
25140;DHT22;39015;48.106;-1.682;2023-04-15T08:48:07;14.60;76.80
25140;DHT22;39015;48.106;-1.682;2023-04-15T08:50:40;14.60;76.80
25140;DHT22;39015;48.106;-1.682;2023-04-15T08:53:07;14.60;76.80
25140;DHT22;39015;48.106;-1.682;2023-04-15T08:55:38;14.60;76.80
25140;DHT22;39015;48.106;-1.682;2023-04-15T08:58:12;14.60;76.80
25140;DHT22;39015;48.106;-1.682;2023-04-15T09:00:40;14.60;76.70
25140;DHT22;39015;48.106;-1.682;2023-04-15T09:03:08;14.60;76.50
25140;DHT22;39015;48.106;-1.682;2023-04-15T09:05:35;14.60;76.60
25140;DHT22;39015;48.106;-1.682;2023-04-15T09:08:04;14.60;76.70
25140;DHT22;39015;48.106;-1.682;2023-04-15T09:10:31;14.60;76.60
25140;DHT22;39015;48.106;-1.682;2023-04-15T09:12:59;14.60;76.50
25140;DHT22;39015;48.106;-1.682;2023-04-15T09:15:27;14.60;76.40
25140;DHT22;39015;48.106;-1.682;2023-04-15T09:17:55;14.60;76.40
25140;DHT22;39015;48.106;-1.682;2023-04-15T09:20:22;14.60;76.40
25140;DHT22;39015;48.106;-1.682;2023-04-15T09:22:49;14.70;76.30
25140;DHT22;39015;48.106;-1.682;2023-04-15T09:25:25;14.70;76.20
25140;DHT22;39015;48.106;-1.682;2023-04-15T09:27:53;14.70;76.10
25140;DHT22;39015;48.106;-1.682;2023-04-15T09:30:20;14.70;75.90
25140;DHT22;39015;48.106;-1.682;2023-04-15T09:32:50;14.70;75.90
25140;DHT22;39015;48.106;-1.682;2023-04-15T09:35:17;14.80;76.00
25140;DHT22;39015;48.106;-1.682;2023-04-15T09:37:44;14.80;76.00
25140;DHT22;39015;48.106;-1.682;2023-04-15T09:40:11;14.80;75.80
25140;DHT22;39015;48.106;-1.682;2023-04-15T09:42:52;14.80;75.80
25140;DHT22;39015;48.106;-1.682;2023-04-15T09:45:20;14.80;75.80
25140;DHT22;39015;48.106;-1.682;2023-04-15T09:47:55;14.80;75.80
25140;DHT22;39015;48.106;-1.682;2023-04-15T09:50:22;14.80;75.80
25140;DHT22;39015;48.106;-1.682;2023-04-15T09:52:52;14.80;75.80
25140;DHT22;39015;48.106;-1.682;2023-04-15T09:55:19;14.80;75.70
25140;DHT22;39015;48.106;-1.682;2023-04-15T09:57:46;14.80;75.60
25140;DHT22;39015;48.106;-1.682;2023-04-15T10:00:13;14.90;75.70
25140;DHT22;39015;48.106;-1.682;2023-04-15T10:02:40;14.90;75.60
25140;DHT22;39015;48.106;-1.682;2023-04-15T10:05:10;14.90;75.50
25140;DHT22;39015;48.106;-1.682;2023-04-15T10:07:39;15.00;75.50
25140;DHT22;39015;48.106;-1.682;2023-04-15T10:10:07;15.00;75.40
25140;DHT22;39015;48.106;-1.682;2023-04-15T10:12:36;15.00;75.30
25140;DHT22;39015;48.106;-1.682;2023-04-15T10:15:05;15.10;75.30
25140;DHT22;39015;48.106;-1.682;2023-04-15T10:17:32;15.10;75.30
25140;DHT22;39015;48.106;-1.682;2023-04-15T10:20:02;15.10;75.30
25140;DHT22;39015;48.106;-1.682;2023-04-15T10:22:31;15.10;75.20
25140;DHT22;39015;48.106;-1.682;2023-04-15T10:24:58;15.20;75.30
25140;DHT22;39015;48.106;-1.682;2023-04-15T10:27:25;15.20;75.30
25140;DHT22;39015;48.106;-1.682;2023-04-15T10:29:52;15.20;75.20
25140;DHT22;39015;48.106;-1.682;2023-04-15T10:32:20;15.20;75.30
25140;DHT22;39015;48.106;-1.682;2023-04-15T10:34:47;15.20;75.20
25140;DHT22;39015;48.106;-1.682;2023-04-15T10:37:19;15.30;75.20
25140;DHT22;39015;48.106;-1.682;2023-04-15T10:39:47;15.30;75.20
25140;DHT22;39015;48.106;-1.682;2023-04-15T10:42:17;15.20;75.00
25140;DHT22;39015;48.106;-1.682;2023-04-15T10:44:50;15.20;75.00
25140;DHT22;39015;48.106;-1.682;2023-04-15T10:47:19;15.30;75.00
25140;DHT22;39015;48.106;-1.682;2023-04-15T10:49:50;15.30;74.90
25140;DHT22;39015;48.106;-1.682;2023-04-15T10:52:21;15.30;75.00
25140;DHT22;39015;48.106;-1.682;2023-04-15T10:54:51;15.30;75.00
25140;DHT22;39015;48.106;-1.682;2023-04-15T10:57:34;15.30;74.80
25140;DHT22;39015;48.106;-1.682;2023-04-15T11:00:11;15.30;74.70
25140;DHT22;39015;48.106;-1.682;2023-04-15T11:02:43;15.40;74.60
25140;DHT22;39015;48.106;-1.682;2023-04-15T11:05:11;15.40;74.70
25140;DHT22;39015;48.106;-1.682;2023-04-15T11:07:48;15.40;74.70
25140;DHT22;39015;48.106;-1.682;2023-04-15T11:13:17;15.40;74.90
25140;DHT22;39015;48.106;-1.682;2023-04-15T11:15:46;15.50;75.00
25140;DHT22;39015;48.106;-1.682;2023-04-15T11:18:14;15.50;74.90
25140;DHT22;39015;48.106;-1.682;2023-04-15T11:20:43;15.50;74.90
25140;DHT22;39015;48.106;-1.682;2023-04-15T11:23:13;15.60;75.00
25140;DHT22;39015;48.106;-1.682;2023-04-15T11:25:40;15.60;75.00
25140;DHT22;39015;48.106;-1.682;2023-04-15T11:28:07;15.60;74.90
25140;DHT22;39015;48.106;-1.682;2023-04-15T11:30:35;15.60;74.70
25140;DHT22;39015;48.106;-1.682;2023-04-15T11:33:03;15.60;74.70
25140;DHT22;39015;48.106;-1.682;2023-04-15T11:35:33;15.70;74.80
25140;DHT22;39015;48.106;-1.682;2023-04-15T11:38:01;15.70;74.70
25140;DHT22;39015;48.106;-1.682;2023-04-15T11:40:28;15.70;74.80
25140;DHT22;39015;48.106;-1.682;2023-04-15T11:43:06;15.70;74.80
25140;DHT22;39015;48.106;-1.682;2023-04-15T11:45:33;15.70;74.80
25140;DHT22;39015;48.106;-1.682;2023-04-15T11:48:05;15.70;74.70
25140;DHT22;39015;48.106;-1.682;2023-04-15T11:50:32;15.80;74.70
25140;DHT22;39015;48.106;-1.682;2023-04-15T11:53:00;15.80;74.70
25140;DHT22;39015;48.106;-1.682;2023-04-15T11:55:27;15.80;74.50
25140;DHT22;39015;48.106;-1.682;2023-04-15T11:58:10;15.80;74.60
25140;DHT22;39015;48.106;-1.682;2023-04-15T12:00:37;15.80;74.50
25140;DHT22;39015;48.106;-1.682;2023-04-15T12:03:15;15.80;74.50
25140;DHT22;39015;48.106;-1.682;2023-04-15T12:11:11;15.80;74.40
25140;DHT22;39015;48.106;-1.682;2023-04-15T12:13:37;15.90;74.50
25140;DHT22;39015;48.106;-1.682;2023-04-15T12:16:04;15.80;74.20
25140;DHT22;39015;48.106;-1.682;2023-04-15T12:18:33;15.90;74.20
25140;DHT22;39015;48.106;-1.682;2023-04-15T12:21:03;15.90;74.20
25140;DHT22;39015;48.106;-1.682;2023-04-15T12:23:30;15.90;74.30
25140;DHT22;39015;48.106;-1.682;2023-04-15T12:25:58;15.90;74.20
25140;DHT22;39015;48.106;-1.682;2023-04-15T12:28:25;15.90;74.20
25140;DHT22;39015;48.106;-1.682;2023-04-15T12:30:56;15.90;74.20
25140;DHT22;39015;48.106;-1.682;2023-04-15T12:33:22;15.90;74.20
25140;DHT22;39015;48.106;-1.682;2023-04-15T12:35:50;15.90;74.10
25140;DHT22;39015;48.106;-1.682;2023-04-15T12:38:17;15.90;74.10
25140;DHT22;39015;48.106;-1.682;2023-04-15T12:40:45;15.90;74.10
25140;DHT22;39015;48.106;-1.682;2023-04-15T12:43:12;16.00;74.10
25140;DHT22;39015;48.106;-1.682;2023-04-15T12:45:39;15.90;74.10
25140;DHT22;39015;48.106;-1.682;2023-04-15T12:48:06;15.90;74.10
25140;DHT22;39015;48.106;-1.682;2023-04-15T12:50:33;16.00;74.10
25140;DHT22;39015;48.106;-1.682;2023-04-15T12:53:02;16.00;74.30
25140;DHT22;39015;48.106;-1.682;2023-04-15T12:55:29;16.00;74.20
25140;DHT22;39015;48.106;-1.682;2023-04-15T12:57:56;16.00;74.00
25140;DHT22;39015;48.106;-1.682;2023-04-15T13:00:22;16.00;73.90
25140;DHT22;39015;48.106;-1.682;2023-04-15T13:02:52;16.00;74.00
25140;DHT22;39015;48.106;-1.682;2023-04-15T13:05:23;16.00;74.00
25140;DHT22;39015;48.106;-1.682;2023-04-15T13:07:51;16.00;74.00
25140;DHT22;39015;48.106;-1.682;2023-04-15T13:10:23;16.00;73.90
25140;DHT22;39015;48.106;-1.682;2023-04-15T13:12:52;16.00;73.90
25140;DHT22;39015;48.106;-1.682;2023-04-15T13:15:21;16.00;73.90
25140;DHT22;39015;48.106;-1.682;2023-04-15T13:17:48;16.00;73.90
25140;DHT22;39015;48.106;-1.682;2023-04-15T13:20:15;16.00;73.90
25140;DHT22;39015;48.106;-1.682;2023-04-15T13:22:42;16.00;73.90
25140;DHT22;39015;48.106;-1.682;2023-04-15T13:25:10;16.00;73.60
25140;DHT22;39015;48.106;-1.682;2023-04-15T13:27:41;16.10;73.70
25140;DHT22;39015;48.106;-1.682;2023-04-15T13:30:08;16.00;73.60
25140;DHT22;39015;48.106;-1.682;2023-04-15T13:32:35;16.10;73.60
25140;DHT22;39015;48.106;-1.682;2023-04-15T13:35:02;16.10;73.60
25140;DHT22;39015;48.106;-1.682;2023-04-15T13:37:29;16.10;73.60
25140;DHT22;39015;48.106;-1.682;2023-04-15T13:39:57;16.10;73.60
25140;DHT22;39015;48.106;-1.682;2023-04-15T13:42:27;16.10;73.50
25140;DHT22;39015;48.106;-1.682;2023-04-15T13:45:00;16.10;73.60
25140;DHT22;39015;48.106;-1.682;2023-04-15T13:47:27;16.10;73.50
25140;DHT22;39015;48.106;-1.682;2023-04-15T13:49:54;16.10;73.50
25140;DHT22;39015;48.106;-1.682;2023-04-15T13:52:21;16.10;73.50
25140;DHT22;39015;48.106;-1.682;2023-04-15T13:54:48;16.10;73.50
25140;DHT22;39015;48.106;-1.682;2023-04-15T13:57:15;16.10;73.50
25140;DHT22;39015;48.106;-1.682;2023-04-15T13:59:41;16.10;73.50
25140;DHT22;39015;48.106;-1.682;2023-04-15T14:02:13;16.10;73.40
25140;DHT22;39015;48.106;-1.682;2023-04-15T14:04:42;16.20;73.50
25140;DHT22;39015;48.106;-1.682;2023-04-15T14:07:09;16.20;73.50
25140;DHT22;39015;48.106;-1.682;2023-04-15T14:09:36;16.20;73.50
25140;DHT22;39015;48.106;-1.682;2023-04-15T14:12:03;16.20;73.50
25140;DHT22;39015;48.106;-1.682;2023-04-15T14:14:30;16.20;73.50
25140;DHT22;39015;48.106;-1.682;2023-04-15T14:16:57;16.20;73.50
25140;DHT22;39015;48.106;-1.682;2023-04-15T14:19:25;16.20;73.50
25140;DHT22;39015;48.106;-1.682;2023-04-15T14:21:52;16.20;73.50
25140;DHT22;39015;48.106;-1.682;2023-04-15T14:24:18;16.20;73.50
25140;DHT22;39015;48.106;-1.682;2023-04-15T14:26:45;16.20;73.60
25140;DHT22;39015;48.106;-1.682;2023-04-15T14:29:12;16.20;73.50
25140;DHT22;39015;48.106;-1.682;2023-04-15T14:31:40;16.20;73.50
25140;DHT22;39015;48.106;-1.682;2023-04-15T14:34:10;16.20;73.40
25140;DHT22;39015;48.106;-1.682;2023-04-15T14:36:39;16.20;73.50
25140;DHT22;39015;48.106;-1.682;2023-04-15T14:39:06;16.20;73.40
25140;DHT22;39015;48.106;-1.682;2023-04-15T14:41:35;16.20;73.40
25140;DHT22;39015;48.106;-1.682;2023-04-15T14:44:02;16.20;73.40
25140;DHT22;39015;48.106;-1.682;2023-04-15T14:46:29;16.20;73.50
25140;DHT22;39015;48.106;-1.682;2023-04-15T14:48:56;16.20;73.30
25140;DHT22;39015;48.106;-1.682;2023-04-15T14:51:23;16.20;73.30
25140;DHT22;39015;48.106;-1.682;2023-04-15T14:53:52;16.20;73.20
25140;DHT22;39015;48.106;-1.682;2023-04-15T14:56:19;16.20;73.20
25140;DHT22;39015;48.106;-1.682;2023-04-15T14:58:46;16.20;73.20
25140;DHT22;39015;48.106;-1.682;2023-04-15T15:01:14;16.20;73.00
25140;DHT22;39015;48.106;-1.682;2023-04-15T15:03:42;16.20;73.10
25140;DHT22;39015;48.106;-1.682;2023-04-15T15:06:08;16.20;72.80
25140;DHT22;39015;48.106;-1.682;2023-04-15T15:08:35;16.20;72.80
25140;DHT22;39015;48.106;-1.682;2023-04-15T15:11:03;16.20;72.80
25140;DHT22;39015;48.106;-1.682;2023-04-15T15:13:30;16.20;72.90
25140;DHT22;39015;48.106;-1.682;2023-04-15T15:15:58;16.20;73.00
25140;DHT22;39015;48.106;-1.682;2023-04-15T15:18:26;16.20;72.90
25140;DHT22;39015;48.106;-1.682;2023-04-15T15:20:53;16.20;72.80
25140;DHT22;39015;48.106;-1.682;2023-04-15T15:23:21;16.20;72.70
25140;DHT22;39015;48.106;-1.682;2023-04-15T15:25:51;16.20;72.50
25140;DHT22;39015;48.106;-1.682;2023-04-15T15:28:26;16.20;72.50
25140;DHT22;39015;48.106;-1.682;2023-04-15T15:30:58;16.20;72.50
25140;DHT22;39015;48.106;-1.682;2023-04-15T15:33:29;16.30;72.70
25140;DHT22;39015;48.106;-1.682;2023-04-15T15:35:57;16.30;72.60
25140;DHT22;39015;48.106;-1.682;2023-04-15T15:38:24;16.30;72.50
25140;DHT22;39015;48.106;-1.682;2023-04-15T15:40:50;16.30;72.50
25140;DHT22;39015;48.106;-1.682;2023-04-15T15:43:17;16.30;72.50
25140;DHT22;39015;48.106;-1.682;2023-04-15T15:45:45;16.30;72.40
25140;DHT22;39015;48.106;-1.682;2023-04-15T15:48:18;16.30;72.30
25140;DHT22;39015;48.106;-1.682;2023-04-15T15:50:47;16.30;72.30
25140;DHT22;39015;48.106;-1.682;2023-04-15T15:53:14;16.30;72.20
25140;DHT22;39015;48.106;-1.682;2023-04-15T15:55:45;16.30;72.40
25140;DHT22;39015;48.106;-1.682;2023-04-15T15:58:12;16.30;72.40
25140;DHT22;39015;48.106;-1.682;2023-04-15T16:00:39;16.30;72.30
25140;DHT22;39015;48.106;-1.682;2023-04-15T16:03:07;16.30;72.20
25140;DHT22;39015;48.106;-1.682;2023-04-15T16:05:36;16.30;72.40
25140;DHT22;39015;48.106;-1.682;2023-04-15T16:08:03;16.30;72.30
25140;DHT22;39015;48.106;-1.682;2023-04-15T16:10:30;16.30;72.20
25140;DHT22;39015;48.106;-1.682;2023-04-15T16:12:57;16.30;72.20
25140;DHT22;39015;48.106;-1.682;2023-04-15T16:15:25;16.30;72.20
25140;DHT22;39015;48.106;-1.682;2023-04-15T16:17:51;16.30;72.00
25140;DHT22;39015;48.106;-1.682;2023-04-15T16:20:20;16.40;72.10
25140;DHT22;39015;48.106;-1.682;2023-04-15T16:22:47;16.30;72.10
25140;DHT22;39015;48.106;-1.682;2023-04-15T16:25:13;16.40;72.10
25140;DHT22;39015;48.106;-1.682;2023-04-15T16:27:40;16.40;72.10
25140;DHT22;39015;48.106;-1.682;2023-04-15T16:30:08;16.40;72.10
25140;DHT22;39015;48.106;-1.682;2023-04-15T16:32:35;16.40;71.90
25140;DHT22;39015;48.106;-1.682;2023-04-15T16:35:02;16.40;71.80
25140;DHT22;39015;48.106;-1.682;2023-04-15T16:37:31;16.40;71.90
25140;DHT22;39015;48.106;-1.682;2023-04-15T16:40:00;16.40;71.80
25140;DHT22;39015;48.106;-1.682;2023-04-15T16:42:27;16.40;71.70
25140;DHT22;39015;48.106;-1.682;2023-04-15T16:44:55;16.40;71.70
25140;DHT22;39015;48.106;-1.682;2023-04-15T16:47:22;16.40;71.70
25140;DHT22;39015;48.106;-1.682;2023-04-15T16:49:50;16.40;71.60
25140;DHT22;39015;48.106;-1.682;2023-04-15T16:52:16;16.40;71.60
25140;DHT22;39015;48.106;-1.682;2023-04-15T16:54:45;16.40;71.60
25140;DHT22;39015;48.106;-1.682;2023-04-15T16:57:11;16.40;71.50
25140;DHT22;39015;48.106;-1.682;2023-04-15T16:59:38;16.40;71.40
25140;DHT22;39015;48.106;-1.682;2023-04-15T17:02:05;16.40;71.40
25140;DHT22;39015;48.106;-1.682;2023-04-15T17:04:35;16.40;71.30
25140;DHT22;39015;48.106;-1.682;2023-04-15T17:07:02;16.50;71.30
25140;DHT22;39015;48.106;-1.682;2023-04-15T17:09:29;16.40;71.20
25140;DHT22;39015;48.106;-1.682;2023-04-15T17:11:57;16.40;71.30
25140;DHT22;39015;48.106;-1.682;2023-04-15T17:14:25;16.40;71.20
25140;DHT22;39015;48.106;-1.682;2023-04-15T17:16:52;16.40;71.10
25140;DHT22;39015;48.106;-1.682;2023-04-15T17:19:20;16.40;71.10
25140;DHT22;39015;48.106;-1.682;2023-04-15T17:21:47;16.40;71.10
25140;DHT22;39015;48.106;-1.682;2023-04-15T17:24:15;16.40;71.10
25140;DHT22;39015;48.106;-1.682;2023-04-15T17:26:42;16.40;71.00
25140;DHT22;39015;48.106;-1.682;2023-04-15T17:29:11;16.50;71.10
25140;DHT22;39015;48.106;-1.682;2023-04-15T17:31:38;16.40;71.00
25140;DHT22;39015;48.106;-1.682;2023-04-15T17:34:05;16.40;71.10
25140;DHT22;39015;48.106;-1.682;2023-04-15T17:36:32;16.40;70.70
25140;DHT22;39015;48.106;-1.682;2023-04-15T17:38:59;16.40;70.70
25140;DHT22;39015;48.106;-1.682;2023-04-15T17:41:26;16.40;70.80
25140;DHT22;39015;48.106;-1.682;2023-04-15T17:43:52;16.40;70.50
25140;DHT22;39015;48.106;-1.682;2023-04-15T17:46:21;16.40;70.60
25140;DHT22;39015;48.106;-1.682;2023-04-15T17:48:48;16.50;70.70
25140;DHT22;39015;48.106;-1.682;2023-04-15T17:51:15;16.50;70.80
25140;DHT22;39015;48.106;-1.682;2023-04-15T17:53:42;16.40;70.70
25140;DHT22;39015;48.106;-1.682;2023-04-15T17:56:09;16.50;70.30
25140;DHT22;39015;48.106;-1.682;2023-04-15T17:58:36;16.40;70.60
25140;DHT22;39015;48.106;-1.682;2023-04-15T18:01:03;16.40;70.70
25140;DHT22;39015;48.106;-1.682;2023-04-15T18:03:32;16.40;70.90
25140;DHT22;39015;48.106;-1.682;2023-04-15T18:05:59;16.40;71.00
25140;DHT22;39015;48.106;-1.682;2023-04-15T18:08:26;16.50;70.90
25140;DHT22;39015;48.106;-1.682;2023-04-15T18:10:53;16.50;71.10
25140;DHT22;39015;48.106;-1.682;2023-04-15T18:13:19;16.50;71.10
25140;DHT22;39015;48.106;-1.682;2023-04-15T18:15:46;16.50;71.10
25140;DHT22;39015;48.106;-1.682;2023-04-15T18:18:15;16.50;71.30
25140;DHT22;39015;48.106;-1.682;2023-04-15T18:20:43;16.50;71.10
25140;DHT22;39015;48.106;-1.682;2023-04-15T18:23:10;16.50;71.00
25140;DHT22;39015;48.106;-1.682;2023-04-15T18:25:36;16.50;71.00
25140;DHT22;39015;48.106;-1.682;2023-04-15T18:28:03;16.40;71.00
25140;DHT22;39015;48.106;-1.682;2023-04-15T18:30:30;16.50;71.10
25140;DHT22;39015;48.106;-1.682;2023-04-15T18:32:58;16.40;71.00
25140;DHT22;39015;48.106;-1.682;2023-04-15T18:35:26;16.40;71.10
25140;DHT22;39015;48.106;-1.682;2023-04-15T18:37:56;16.40;71.10
25140;DHT22;39015;48.106;-1.682;2023-04-15T18:40:23;16.50;71.10
25140;DHT22;39015;48.106;-1.682;2023-04-15T18:42:50;16.50;71.10
25140;DHT22;39015;48.106;-1.682;2023-04-15T18:45:17;16.50;71.20
25140;DHT22;39015;48.106;-1.682;2023-04-15T18:47:44;16.40;71.00
25140;DHT22;39015;48.106;-1.682;2023-04-15T18:50:11;16.40;71.00
25140;DHT22;39015;48.106;-1.682;2023-04-15T18:52:38;16.40;70.90
25140;DHT22;39015;48.106;-1.682;2023-04-15T18:55:06;16.40;71.00
25140;DHT22;39015;48.106;-1.682;2023-04-15T18:57:33;16.40;71.00
25140;DHT22;39015;48.106;-1.682;2023-04-15T19:00:00;16.40;71.00
25140;DHT22;39015;48.106;-1.682;2023-04-15T19:02:27;16.40;70.90
25140;DHT22;39015;48.106;-1.682;2023-04-15T19:04:53;16.40;71.00
25140;DHT22;39015;48.106;-1.682;2023-04-15T19:07:20;16.40;70.90
25140;DHT22;39015;48.106;-1.682;2023-04-15T19:09:47;16.40;71.00
25140;DHT22;39015;48.106;-1.682;2023-04-15T19:12:15;16.40;71.00
25140;DHT22;39015;48.106;-1.682;2023-04-15T19:14:42;16.40;71.00
25140;DHT22;39015;48.106;-1.682;2023-04-15T19:17:09;16.40;70.90
25140;DHT22;39015;48.106;-1.682;2023-04-15T19:19:36;16.40;71.00
25140;DHT22;39015;48.106;-1.682;2023-04-15T19:22:03;16.40;71.00
25140;DHT22;39015;48.106;-1.682;2023-04-15T19:24:31;16.40;71.00
25140;DHT22;39015;48.106;-1.682;2023-04-15T19:26:58;16.40;71.00
25140;DHT22;39015;48.106;-1.682;2023-04-15T19:29:27;16.40;71.00
25140;DHT22;39015;48.106;-1.682;2023-04-15T19:31:54;16.30;70.90
25140;DHT22;39015;48.106;-1.682;2023-04-15T19:34:20;16.40;71.00
25140;DHT22;39015;48.106;-1.682;2023-04-15T19:36:47;16.30;70.90
25140;DHT22;39015;48.106;-1.682;2023-04-15T19:39:14;16.30;70.90
25140;DHT22;39015;48.106;-1.682;2023-04-15T19:41:41;16.30;71.00
25140;DHT22;39015;48.106;-1.682;2023-04-15T19:44:08;16.30;70.90
25140;DHT22;39015;48.106;-1.682;2023-04-15T19:46:38;16.30;70.90
25140;DHT22;39015;48.106;-1.682;2023-04-15T19:49:05;16.30;71.00
25140;DHT22;39015;48.106;-1.682;2023-04-15T19:51:32;16.30;71.00
25140;DHT22;39015;48.106;-1.682;2023-04-15T19:54:00;16.30;71.00
25140;DHT22;39015;48.106;-1.682;2023-04-15T19:56:29;16.30;70.90
25140;DHT22;39015;48.106;-1.682;2023-04-15T19:58:59;16.30;70.90
25140;DHT22;39015;48.106;-1.682;2023-04-15T20:01:26;16.30;70.90
25140;DHT22;39015;48.106;-1.682;2023-04-15T20:03:57;16.30;70.90
25140;DHT22;39015;48.106;-1.682;2023-04-15T20:06:30;16.30;70.90
25140;DHT22;39015;48.106;-1.682;2023-04-15T20:08:58;16.30;70.90
25140;DHT22;39015;48.106;-1.682;2023-04-15T20:11:25;16.30;70.90
25140;DHT22;39015;48.106;-1.682;2023-04-15T20:13:53;16.30;70.90
25140;DHT22;39015;48.106;-1.682;2023-04-15T20:16:20;16.20;70.80
25140;DHT22;39015;48.106;-1.682;2023-04-15T20:18:47;16.20;70.80
25140;DHT22;39015;48.106;-1.682;2023-04-15T20:21:16;16.20;71.70
25140;DHT22;39015;48.106;-1.682;2023-04-15T20:23:43;16.20;70.90
25140;DHT22;39015;48.106;-1.682;2023-04-15T20:26:10;16.20;70.90
25140;DHT22;39015;48.106;-1.682;2023-04-15T20:28:37;16.20;70.90
25140;DHT22;39015;48.106;-1.682;2023-04-15T20:31:03;16.20;70.90
25140;DHT22;39015;48.106;-1.682;2023-04-15T20:33:30;16.20;70.90
25140;DHT22;39015;48.106;-1.682;2023-04-15T20:35:57;16.20;70.90
25140;DHT22;39015;48.106;-1.682;2023-04-15T20:38:26;16.20;70.90
25140;DHT22;39015;48.106;-1.682;2023-04-15T20:40:53;16.20;71.00
25140;DHT22;39015;48.106;-1.682;2023-04-15T20:43:20;16.20;70.90
25140;DHT22;39015;48.106;-1.682;2023-04-15T20:45:47;16.20;70.90
25140;DHT22;39015;48.106;-1.682;2023-04-15T20:48:15;16.10;70.90
25140;DHT22;39015;48.106;-1.682;2023-04-15T20:50:43;16.10;70.90
25140;DHT22;39015;48.106;-1.682;2023-04-15T20:53:10;16.10;70.90
25140;DHT22;39015;48.106;-1.682;2023-04-15T20:55:38;16.10;70.90
25140;DHT22;39015;48.106;-1.682;2023-04-15T20:58:05;16.10;70.90
